sensor_id;sensor_type;location;lat;lon;timestamp;P1;durP1;ratioP1;P2;durP2;ratioP2
65162;SDS011;51751;55.714;37.436;2023-09-19T00:00:46;21.60;;;11.15;;
65162;SDS011;51751;55.714;37.436;2023-09-19T00:03:15;22.08;;;10.77;;
65162;SDS011;51751;55.714;37.436;2023-09-19T00:05:41;25.67;;;10.50;;
65162;SDS011;51751;55.714;37.436;2023-09-19T00:08:11;21.08;;;10.98;;
65162;SDS011;51751;55.714;37.436;2023-09-19T00:10:39;22.75;;;10.80;;
65162;SDS011;51751;55.714;37.436;2023-09-19T00:13:06;16.77;;;10.13;;
65162;SDS011;51751;55.714;37.436;2023-09-19T00:15:38;20.35;;;10.15;;
65162;SDS011;51751;55.714;37.436;2023-09-19T00:18:08;22.58;;;10.70;;
65162;SDS011;51751;55.714;37.436;2023-09-19T00:20:38;15.80;;;9.80;;
65162;SDS011;51751;55.714;37.436;2023-09-19T00:23:05;18.67;;;10.40;;
65162;SDS011;51751;55.714;37.436;2023-09-19T00:25:31;18.35;;;9.98;;
65162;SDS011;51751;55.714;37.436;2023-09-19T00:27:58;22.30;;;10.50;;
65162;SDS011;51751;55.714;37.436;2023-09-19T00:30:24;19.95;;;9.90;;
65162;SDS011;51751;55.714;37.436;2023-09-19T00:32:51;22.08;;;10.60;;
65162;SDS011;51751;55.714;37.436;2023-09-19T00:35:18;23.20;;;10.48;;
65162;SDS011;51751;55.714;37.436;2023-09-19T00:37:50;21.38;;;11.13;;
65162;SDS011;51751;55.714;37.436;2023-09-19T00:40:16;24.83;;;11.30;;
65162;SDS011;51751;55.714;37.436;2023-09-19T00:42:45;20.65;;;10.82;;
65162;SDS011;51751;55.714;37.436;2023-09-19T00:45:15;26.27;;;10.75;;
65162;SDS011;51751;55.714;37.436;2023-09-19T00:47:49;20.67;;;11.40;;
65162;SDS011;51751;55.714;37.436;2023-09-19T00:50:18;18.55;;;10.95;;
65162;SDS011;51751;55.714;37.436;2023-09-19T00:52:47;21.83;;;11.10;;
65162;SDS011;51751;55.714;37.436;2023-09-19T00:55:15;20.58;;;11.38;;
65162;SDS011;51751;55.714;37.436;2023-09-19T00:57:45;22.90;;;11.45;;
65162;SDS011;51751;55.714;37.436;2023-09-19T01:03:18;22.80;;;11.80;;
65162;SDS011;51751;55.714;37.436;2023-09-19T01:05:48;26.73;;;11.45;;
65162;SDS011;51751;55.714;37.436;2023-09-19T01:08:14;23.05;;;11.63;;
65162;SDS011;51751;55.714;37.436;2023-09-19T01:10:43;25.45;;;11.60;;
65162;SDS011;51751;55.714;37.436;2023-09-19T01:13:37;21.52;;;11.98;;
65162;SDS011;51751;55.714;37.436;2023-09-19T01:29:38;28.95;;;17.25;;
65162;SDS011;51751;55.714;37.436;2023-09-19T01:32:08;27.08;;;16.10;;
65162;SDS011;51751;55.714;37.436;2023-09-19T01:37:19;26.83;;;15.95;;
65162;SDS011;51751;55.714;37.436;2023-09-19T01:39:53;28.05;;;16.80;;
65162;SDS011;51751;55.714;37.436;2023-09-19T01:42:38;28.42;;;16.63;;
65162;SDS011;51751;55.714;37.436;2023-09-19T01:48:05;27.02;;;16.38;;
65162;SDS011;51751;55.714;37.436;2023-09-19T01:51:34;29.90;;;15.95;;
65162;SDS011;51751;55.714;37.436;2023-09-19T01:53:36;31.20;;;17.08;;
65162;SDS011;51751;55.714;37.436;2023-09-19T01:56:12;28.52;;;17.48;;
65162;SDS011;51751;55.714;37.436;2023-09-19T01:58:48;32.17;;;19.90;;
65162;SDS011;51751;55.714;37.436;2023-09-19T02:01:22;34.38;;;18.75;;
65162;SDS011;51751;55.714;37.436;2023-09-19T02:03:49;29.95;;;18.55;;
65162;SDS011;51751;55.714;37.436;2023-09-19T02:06:16;30.60;;;18.83;;
65162;SDS011;51751;55.714;37.436;2023-09-19T02:08:43;27.40;;;19.45;;
65162;SDS011;51751;55.714;37.436;2023-09-19T02:11:13;35.38;;;20.10;;
65162;SDS011;51751;55.714;37.436;2023-09-19T02:13:40;34.78;;;20.95;;
65162;SDS011;51751;55.714;37.436;2023-09-19T02:16:07;35.72;;;22.38;;
65162;SDS011;51751;55.714;37.436;2023-09-19T02:18:38;33.25;;;21.27;;
65162;SDS011;51751;55.714;37.436;2023-09-19T02:21:04;37.10;;;23.55;;
65162;SDS011;51751;55.714;37.436;2023-09-19T02:23:32;37.75;;;23.48;;
65162;SDS011;51751;55.714;37.436;2023-09-19T02:25:59;32.13;;;22.05;;
65162;SDS011;51751;55.714;37.436;2023-09-19T02:28:30;32.42;;;23.10;;
65162;SDS011;51751;55.714;37.436;2023-09-19T02:31:01;41.35;;;24.85;;
65162;SDS011;51751;55.714;37.436;2023-09-19T02:33:33;35.45;;;24.48;;
65162;SDS011;51751;55.714;37.436;2023-09-19T02:36:00;40.83;;;24.88;;
65162;SDS011;51751;55.714;37.436;2023-09-19T02:38:32;42.45;;;25.25;;
65162;SDS011;51751;55.714;37.436;2023-09-19T02:40:59;37.65;;;25.80;;
65162;SDS011;51751;55.714;37.436;2023-09-19T02:43:28;39.92;;;26.52;;
65162;SDS011;51751;55.714;37.436;2023-09-19T02:45:55;39.70;;;26.60;;
65162;SDS011;51751;55.714;37.436;2023-09-19T02:48:35;38.45;;;25.55;;
65162;SDS011;51751;55.714;37.436;2023-09-19T02:51:01;40.53;;;26.05;;
65162;SDS011;51751;55.714;37.436;2023-09-19T02:53:31;39.67;;;25.52;;
65162;SDS011;51751;55.714;37.436;2023-09-19T02:55:57;37.95;;;25.23;;
65162;SDS011;51751;55.714;37.436;2023-09-19T02:58:27;38.65;;;26.45;;
65162;SDS011;51751;55.714;37.436;2023-09-19T03:01:08;38.72;;;25.20;;
65162;SDS011;51751;55.714;37.436;2023-09-19T03:03:35;38.75;;;26.23;;
65162;SDS011;51751;55.714;37.436;2023-09-19T03:06:03;37.75;;;25.17;;
65162;SDS011;51751;55.714;37.436;2023-09-19T03:08:32;41.08;;;26.08;;
65162;SDS011;51751;55.714;37.436;2023-09-19T03:11:03;38.90;;;24.92;;
65162;SDS011;51751;55.714;37.436;2023-09-19T03:13:36;38.58;;;24.13;;
65162;SDS011;51751;55.714;37.436;2023-09-19T03:16:04;41.97;;;25.83;;
65162;SDS011;51751;55.714;37.436;2023-09-19T03:18:32;40.70;;;26.02;;
65162;SDS011;51751;55.714;37.436;2023-09-19T03:20:59;38.42;;;24.88;;
65162;SDS011;51751;55.714;37.436;2023-09-19T03:23:26;36.97;;;25.13;;
65162;SDS011;51751;55.714;37.436;2023-09-19T03:25:56;35.95;;;24.83;;
65162;SDS011;51751;55.714;37.436;2023-09-19T03:28:23;37.08;;;24.73;;
65162;SDS011;51751;55.714;37.436;2023-09-19T03:33:48;33.63;;;23.17;;
65162;SDS011;51751;55.714;37.436;2023-09-19T03:36:14;36.05;;;23.38;;
65162;SDS011;51751;55.714;37.436;2023-09-19T03:38:40;40.80;;;23.60;;
65162;SDS011;51751;55.714;37.436;2023-09-19T03:41:06;32.58;;;23.08;;
65162;SDS011;51751;55.714;37.436;2023-09-19T03:43:35;36.28;;;23.23;;
65162;SDS011;51751;55.714;37.436;2023-09-19T03:46:04;35.20;;;23.17;;
65162;SDS011;51751;55.714;37.436;2023-09-19T03:48:31;36.00;;;23.35;;
65162;SDS011;51751;55.714;37.436;2023-09-19T03:51:03;37.80;;;23.27;;
65162;SDS011;51751;55.714;37.436;2023-09-19T03:53:30;38.17;;;22.45;;
65162;SDS011;51751;55.714;37.436;2023-09-19T03:55:56;32.70;;;22.38;;
65162;SDS011;51751;55.714;37.436;2023-09-19T03:58:25;34.10;;;22.77;;
65162;SDS011;51751;55.714;37.436;2023-09-19T04:00:54;33.45;;;22.30;;
65162;SDS011;51751;55.714;37.436;2023-09-19T04:03:22;36.90;;;22.20;;
65162;SDS011;51751;55.714;37.436;2023-09-19T04:05:48;36.38;;;21.90;;
65162;SDS011;51751;55.714;37.436;2023-09-19T04:08:14;35.17;;;22.05;;
65162;SDS011;51751;55.714;37.436;2023-09-19T04:10:46;38.75;;;23.13;;
65162;SDS011;51751;55.714;37.436;2023-09-19T04:13:12;37.67;;;23.15;;
65162;SDS011;51751;55.714;37.436;2023-09-19T04:15:44;38.92;;;22.30;;
65162;SDS011;51751;55.714;37.436;2023-09-19T04:18:11;38.50;;;21.52;;
65162;SDS011;51751;55.714;37.436;2023-09-19T04:20:37;42.63;;;23.02;;
65162;SDS011;51751;55.714;37.436;2023-09-19T04:23:04;37.30;;;22.05;;
65162;SDS011;51751;55.714;37.436;2023-09-19T04:25:34;35.33;;;21.10;;
65162;SDS011;51751;55.714;37.436;2023-09-19T04:28:03;40.55;;;22.30;;
65162;SDS011;51751;55.714;37.436;2023-09-19T04:30:29;37.60;;;22.30;;
65162;SDS011;51751;55.714;37.436;2023-09-19T04:32:58;40.45;;;22.58;;
65162;SDS011;51751;55.714;37.436;2023-09-19T04:35:30;36.70;;;22.33;;
65162;SDS011;51751;55.714;37.436;2023-09-19T04:37:57;39.83;;;22.05;;
65162;SDS011;51751;55.714;37.436;2023-09-19T04:40:25;41.47;;;23.02;;
65162;SDS011;51751;55.714;37.436;2023-09-19T04:42:56;39.13;;;22.52;;
65162;SDS011;51751;55.714;37.436;2023-09-19T04:45:23;40.70;;;22.42;;
65162;SDS011;51751;55.714;37.436;2023-09-19T04:47:49;39.17;;;21.20;;
65162;SDS011;51751;55.714;37.436;2023-09-19T04:50:15;36.25;;;20.88;;
65162;SDS011;51751;55.714;37.436;2023-09-19T04:52:42;39.30;;;21.45;;
65162;SDS011;51751;55.714;37.436;2023-09-19T04:55:13;40.53;;;19.52;;
65162;SDS011;51751;55.714;37.436;2023-09-19T04:57:51;39.80;;;20.27;;
65162;SDS011;51751;55.714;37.436;2023-09-19T05:00:21;34.55;;;18.23;;
65162;SDS011;51751;55.714;37.436;2023-09-19T05:02:52;35.25;;;18.25;;
65162;SDS011;51751;55.714;37.436;2023-09-19T05:05:22;37.17;;;19.13;;
65162;SDS011;51751;55.714;37.436;2023-09-19T05:07:51;36.05;;;17.80;;
65162;SDS011;51751;55.714;37.436;2023-09-19T05:10:19;36.75;;;17.40;;
65162;SDS011;51751;55.714;37.436;2023-09-19T05:12:46;30.90;;;16.88;;
65162;SDS011;51751;55.714;37.436;2023-09-19T05:15:17;36.55;;;16.55;;
65162;SDS011;51751;55.714;37.436;2023-09-19T05:17:50;34.35;;;16.10;;
65162;SDS011;51751;55.714;37.436;2023-09-19T05:20:20;30.33;;;15.60;;
65162;SDS011;51751;55.714;37.436;2023-09-19T05:23:02;28.85;;;14.77;;
65162;SDS011;51751;55.714;37.436;2023-09-19T05:25:35;25.20;;;14.07;;
65162;SDS011;51751;55.714;37.436;2023-09-19T05:28:05;28.15;;;14.30;;
65162;SDS011;51751;55.714;37.436;2023-09-19T05:30:33;28.98;;;15.27;;
65162;SDS011;51751;55.714;37.436;2023-09-19T05:33:02;26.92;;;14.10;;
65162;SDS011;51751;55.714;37.436;2023-09-19T05:35:30;26.27;;;14.15;;
65162;SDS011;51751;55.714;37.436;2023-09-19T05:37:59;22.65;;;13.73;;
65162;SDS011;51751;55.714;37.436;2023-09-19T05:40:25;26.17;;;14.48;;
65162;SDS011;51751;55.714;37.436;2023-09-19T05:42:51;24.23;;;13.70;;
65162;SDS011;51751;55.714;37.436;2023-09-19T05:45:18;24.83;;;13.07;;
65162;SDS011;51751;55.714;37.436;2023-09-19T05:47:51;19.75;;;12.98;;
65162;SDS011;51751;55.714;37.436;2023-09-19T05:50:21;19.83;;;13.05;;
65162;SDS011;51751;55.714;37.436;2023-09-19T05:52:53;22.48;;;12.75;;
65162;SDS011;51751;55.714;37.436;2023-09-19T05:55:21;23.92;;;13.23;;
65162;SDS011;51751;55.714;37.436;2023-09-19T05:57:51;19.65;;;12.82;;
65162;SDS011;51751;55.714;37.436;2023-09-19T06:00:20;24.70;;;13.75;;
65162;SDS011;51751;55.714;37.436;2023-09-19T06:02:56;21.58;;;13.25;;
65162;SDS011;51751;55.714;37.436;2023-09-19T06:05:27;28.25;;;13.52;;
65162;SDS011;51751;55.714;37.436;2023-09-19T06:07:53;25.70;;;13.35;;
65162;SDS011;51751;55.714;37.436;2023-09-19T06:10:19;23.05;;;13.63;;
65162;SDS011;51751;55.714;37.436;2023-09-19T06:12:51;18.65;;;13.07;;
65162;SDS011;51751;55.714;37.436;2023-09-19T06:15:17;20.88;;;12.90;;
65162;SDS011;51751;55.714;37.436;2023-09-19T06:17:52;26.50;;;12.88;;
65162;SDS011;51751;55.714;37.436;2023-09-19T06:20:25;19.83;;;13.07;;
65162;SDS011;51751;55.714;37.436;2023-09-19T06:22:52;25.60;;;13.07;;
65162;SDS011;51751;55.714;37.436;2023-09-19T06:25:18;23.40;;;12.43;;
65162;SDS011;51751;55.714;37.436;2023-09-19T06:27:49;21.83;;;13.07;;
65162;SDS011;51751;55.714;37.436;2023-09-19T06:30:21;28.10;;;12.60;;
65162;SDS011;51751;55.714;37.436;2023-09-19T06:32:58;18.80;;;12.60;;
65162;SDS011;51751;55.714;37.436;2023-09-19T06:35:26;18.73;;;12.55;;
65162;SDS011;51751;55.714;37.436;2023-09-19T06:37:52;26.17;;;12.30;;
65162;SDS011;51751;55.714;37.436;2023-09-19T06:40:23;19.33;;;12.23;;
65162;SDS011;51751;55.714;37.436;2023-09-19T06:42:50;19.48;;;12.18;;
65162;SDS011;51751;55.714;37.436;2023-09-19T06:45:18;21.50;;;12.40;;
65162;SDS011;51751;55.714;37.436;2023-09-19T06:47:48;22.38;;;13.23;;
65162;SDS011;51751;55.714;37.436;2023-09-19T06:50:21;22.35;;;12.68;;
65162;SDS011;51751;55.714;37.436;2023-09-19T06:52:52;24.80;;;12.75;;
65162;SDS011;51751;55.714;37.436;2023-09-19T06:55:19;21.27;;;12.05;;
65162;SDS011;51751;55.714;37.436;2023-09-19T06:57:47;19.55;;;11.85;;
65162;SDS011;51751;55.714;37.436;2023-09-19T07:00:14;26.23;;;12.93;;
65162;SDS011;51751;55.714;37.436;2023-09-19T07:02:41;26.75;;;15.13;;
65162;SDS011;51751;55.714;37.436;2023-09-19T07:05:08;20.35;;;12.32;;
65162;SDS011;51751;55.714;37.436;2023-09-19T07:07:34;26.58;;;12.77;;
65162;SDS011;51751;55.714;37.436;2023-09-19T07:10:01;27.83;;;13.07;;
65162;SDS011;51751;55.714;37.436;2023-09-19T07:12:36;22.27;;;12.57;;
65162;SDS011;51751;55.714;37.436;2023-09-19T07:15:02;26.83;;;12.98;;
65162;SDS011;51751;55.714;37.436;2023-09-19T07:17:31;21.38;;;12.10;;
65162;SDS011;51751;55.714;37.436;2023-09-19T07:20:00;21.92;;;13.30;;
65162;SDS011;51751;55.714;37.436;2023-09-19T07:22:27;22.35;;;13.25;;
65162;SDS011;51751;55.714;37.436;2023-09-19T07:24:54;22.60;;;13.32;;
65162;SDS011;51751;55.714;37.436;2023-09-19T07:27:20;20.98;;;12.50;;
65162;SDS011;51751;55.714;37.436;2023-09-19T07:29:46;18.88;;;13.07;;
65162;SDS011;51751;55.714;37.436;2023-09-19T07:32:16;24.30;;;13.25;;
65162;SDS011;51751;55.714;37.436;2023-09-19T07:34:45;23.45;;;13.13;;
65162;SDS011;51751;55.714;37.436;2023-09-19T07:37:11;25.80;;;13.50;;
65162;SDS011;51751;55.714;37.436;2023-09-19T07:39:41;21.63;;;12.85;;
65162;SDS011;51751;55.714;37.436;2023-09-19T07:42:07;22.80;;;12.38;;
65162;SDS011;51751;55.714;37.436;2023-09-19T07:44:39;25.60;;;13.02;;
65162;SDS011;51751;55.714;37.436;2023-09-19T07:47:08;19.73;;;12.90;;
65162;SDS011;51751;55.714;37.436;2023-09-19T07:49:35;25.58;;;13.52;;
65162;SDS011;51751;55.714;37.436;2023-09-19T07:52:03;21.02;;;13.48;;
65162;SDS011;51751;55.714;37.436;2023-09-19T07:54:29;21.23;;;13.05;;
65162;SDS011;51751;55.714;37.436;2023-09-19T07:57:01;19.55;;;12.52;;
65162;SDS011;51751;55.714;37.436;2023-09-19T07:59:37;24.63;;;12.80;;
65162;SDS011;51751;55.714;37.436;2023-09-19T08:02:04;22.23;;;13.25;;
65162;SDS011;51751;55.714;37.436;2023-09-19T08:04:33;34.30;;;14.82;;
65162;SDS011;51751;55.714;37.436;2023-09-19T08:06:59;43.30;;;14.68;;
65162;SDS011;51751;55.714;37.436;2023-09-19T08:09:26;22.13;;;13.07;;
65162;SDS011;51751;55.714;37.436;2023-09-19T08:11:53;24.98;;;12.43;;
65162;SDS011;51751;55.714;37.436;2023-09-19T08:14:20;25.17;;;12.70;;
65162;SDS011;51751;55.714;37.436;2023-09-19T08:16:46;24.52;;;12.30;;
65162;SDS011;51751;55.714;37.436;2023-09-19T08:19:12;18.05;;;12.50;;
65162;SDS011;51751;55.714;37.436;2023-09-19T08:21:38;17.95;;;12.15;;
65162;SDS011;51751;55.714;37.436;2023-09-19T08:24:04;21.50;;;12.77;;
65162;SDS011;51751;55.714;37.436;2023-09-19T08:26:31;39.92;;;14.10;;
65162;SDS011;51751;55.714;37.436;2023-09-19T08:29:03;21.65;;;12.23;;
65162;SDS011;51751;55.714;37.436;2023-09-19T08:31:32;22.42;;;12.82;;
65162;SDS011;51751;55.714;37.436;2023-09-19T08:33:59;24.90;;;11.95;;
65162;SDS011;51751;55.714;37.436;2023-09-19T08:36:25;28.48;;;12.32;;
65162;SDS011;51751;55.714;37.436;2023-09-19T08:38:51;19.75;;;12.50;;
65162;SDS011;51751;55.714;37.436;2023-09-19T08:41:17;20.48;;;11.82;;
65162;SDS011;51751;55.714;37.436;2023-09-19T08:43:43;22.23;;;12.45;;
65162;SDS011;51751;55.714;37.436;2023-09-19T08:46:15;21.98;;;12.35;;
65162;SDS011;51751;55.714;37.436;2023-09-19T08:48:46;21.80;;;12.70;;
65162;SDS011;51751;55.714;37.436;2023-09-19T08:51:27;30.30;;;12.57;;
65162;SDS011;51751;55.714;37.436;2023-09-19T08:54:22;21.15;;;13.13;;
65162;SDS011;51751;55.714;37.436;2023-09-19T08:56:55;23.23;;;12.20;;
65162;SDS011;51751;55.714;37.436;2023-09-19T08:59:22;25.13;;;12.60;;
65162;SDS011;51751;55.714;37.436;2023-09-19T09:01:53;24.55;;;12.68;;
65162;SDS011;51751;55.714;37.436;2023-09-19T09:04:19;20.58;;;13.63;;
65162;SDS011;51751;55.714;37.436;2023-09-19T09:06:46;26.02;;;12.63;;
65162;SDS011;51751;55.714;37.436;2023-09-19T09:09:19;24.13;;;12.48;;
65162;SDS011;51751;55.714;37.436;2023-09-19T09:11:45;28.17;;;12.48;;
65162;SDS011;51751;55.714;37.436;2023-09-19T09:14:14;29.98;;;12.60;;
65162;SDS011;51751;55.714;37.436;2023-09-19T09:16:41;30.30;;;12.82;;
65162;SDS011;51751;55.714;37.436;2023-09-19T09:19:10;22.27;;;11.65;;
65162;SDS011;51751;55.714;37.436;2023-09-19T09:21:38;21.08;;;11.15;;
65162;SDS011;51751;55.714;37.436;2023-09-19T09:26:53;18.85;;;11.32;;
65162;SDS011;51751;55.714;37.436;2023-09-19T09:29:39;17.25;;;11.38;;
65162;SDS011;51751;55.714;37.436;2023-09-19T09:32:21;23.33;;;11.35;;
65162;SDS011;51751;55.714;37.436;2023-09-19T09:34:51;18.27;;;11.68;;
65162;SDS011;51751;55.714;37.436;2023-09-19T09:37:19;22.27;;;10.32;;
65162;SDS011;51751;55.714;37.436;2023-09-19T09:40:04;21.42;;;11.13;;
65162;SDS011;51751;55.714;37.436;2023-09-19T09:42:39;19.80;;;12.13;;
65162;SDS011;51751;55.714;37.436;2023-09-19T09:45:12;22.85;;;11.02;;
65162;SDS011;51751;55.714;37.436;2023-09-19T09:47:45;18.52;;;10.50;;
65162;SDS011;51751;55.714;37.436;2023-09-19T09:50:29;18.92;;;11.20;;
65162;SDS011;51751;55.714;37.436;2023-09-19T09:53:20;20.35;;;10.55;;
65162;SDS011;51751;55.714;37.436;2023-09-19T09:56:00;22.52;;;10.75;;
65162;SDS011;51751;55.714;37.436;2023-09-19T09:58:38;19.73;;;10.45;;
65162;SDS011;51751;55.714;37.436;2023-09-19T10:01:17;17.83;;;10.85;;
65162;SDS011;51751;55.714;37.436;2023-09-19T10:03:43;19.15;;;10.40;;
65162;SDS011;51751;55.714;37.436;2023-09-19T10:06:14;22.33;;;11.00;;
65162;SDS011;51751;55.714;37.436;2023-09-19T10:09:00;19.00;;;10.38;;
65162;SDS011;51751;55.714;37.436;2023-09-19T10:11:46;22.88;;;11.02;;
65162;SDS011;51751;55.714;37.436;2023-09-19T10:14:16;27.00;;;10.90;;
65162;SDS011;51751;55.714;37.436;2023-09-19T10:16:46;21.10;;;10.68;;
65162;SDS011;51751;55.714;37.436;2023-09-19T10:19:29;36.25;;;11.60;;
65162;SDS011;51751;55.714;37.436;2023-09-19T10:21:59;19.80;;;9.52;;
65162;SDS011;51751;55.714;37.436;2023-09-19T10:24:33;18.55;;;10.25;;
65162;SDS011;51751;55.714;37.436;2023-09-19T10:27:01;19.73;;;9.90;;
65162;SDS011;51751;55.714;37.436;2023-09-19T10:29:29;14.05;;;9.50;;
65162;SDS011;51751;55.714;37.436;2023-09-19T10:32:01;15.40;;;9.90;;
65162;SDS011;51751;55.714;37.436;2023-09-19T10:34:39;18.05;;;9.63;;
65162;SDS011;51751;55.714;37.436;2023-09-19T10:37:07;16.92;;;9.88;;
65162;SDS011;51751;55.714;37.436;2023-09-19T10:39:38;14.65;;;9.45;;
65162;SDS011;51751;55.714;37.436;2023-09-19T10:42:06;17.20;;;9.68;;
65162;SDS011;51751;55.714;37.436;2023-09-19T10:44:34;25.92;;;9.57;;
65162;SDS011;51751;55.714;37.436;2023-09-19T10:47:07;28.75;;;9.40;;
65162;SDS011;51751;55.714;37.436;2023-09-19T10:49:34;19.70;;;8.60;;
65162;SDS011;51751;55.714;37.436;2023-09-19T10:52:01;17.73;;;9.38;;
65162;SDS011;51751;55.714;37.436;2023-09-19T10:54:29;15.85;;;9.48;;
65162;SDS011;51751;55.714;37.436;2023-09-19T10:57:00;21.73;;;9.73;;
65162;SDS011;51751;55.714;37.436;2023-09-19T10:59:30;22.75;;;9.43;;
65162;SDS011;51751;55.714;37.436;2023-09-19T11:02:15;17.35;;;9.10;;
65162;SDS011;51751;55.714;37.436;2023-09-19T11:04:42;18.77;;;9.30;;
65162;SDS011;51751;55.714;37.436;2023-09-19T11:07:11;17.02;;;9.00;;
65162;SDS011;51751;55.714;37.436;2023-09-19T11:15:07;13.60;;;8.57;;
65162;SDS011;51751;55.714;37.436;2023-09-19T11:17:37;16.58;;;8.68;;
65162;SDS011;51751;55.714;37.436;2023-09-19T11:20:35;13.07;;;9.00;;
65162;SDS011;51751;55.714;37.436;2023-09-19T11:30:50;16.60;;;8.52;;
65162;SDS011;51751;55.714;37.436;2023-09-19T11:33:30;19.17;;;9.02;;
65162;SDS011;51751;55.714;37.436;2023-09-19T11:35:59;17.45;;;8.15;;
65162;SDS011;51751;55.714;37.436;2023-09-19T11:49:16;18.52;;;7.72;;
65162;SDS011;51751;55.714;37.436;2023-09-19T11:51:52;18.70;;;8.02;;
65162;SDS011;51751;55.714;37.436;2023-09-19T11:54:19;11.85;;;7.25;;
65162;SDS011;51751;55.714;37.436;2023-09-19T11:56:48;13.52;;;7.63;;
65162;SDS011;51751;55.714;37.436;2023-09-19T11:59:20;11.25;;;7.30;;
65162;SDS011;51751;55.714;37.436;2023-09-19T12:01:53;11.48;;;7.47;;
65162;SDS011;51751;55.714;37.436;2023-09-19T12:04:43;11.93;;;6.95;;
65162;SDS011;51751;55.714;37.436;2023-09-19T12:07:14;12.95;;;6.80;;
65162;SDS011;51751;55.714;37.436;2023-09-19T12:09:45;17.42;;;7.20;;
65162;SDS011;51751;55.714;37.436;2023-09-19T12:12:22;11.90;;;6.28;;
65162;SDS011;51751;55.714;37.436;2023-09-19T12:14:49;14.35;;;5.72;;
65162;SDS011;51751;55.714;37.436;2023-09-19T12:17:18;9.77;;;5.10;;
65162;SDS011;51751;55.714;37.436;2023-09-19T12:19:55;9.27;;;6.30;;
65162;SDS011;51751;55.714;37.436;2023-09-19T12:22:21;9.18;;;5.63;;
65162;SDS011;51751;55.714;37.436;2023-09-19T12:24:47;15.43;;;5.30;;
65162;SDS011;51751;55.714;37.436;2023-09-19T12:27:14;15.02;;;5.30;;
65162;SDS011;51751;55.714;37.436;2023-09-19T12:29:47;11.73;;;5.35;;
65162;SDS011;51751;55.714;37.436;2023-09-19T12:32:34;10.15;;;5.22;;
65162;SDS011;51751;55.714;37.436;2023-09-19T12:35:01;10.23;;;5.13;;
65162;SDS011;51751;55.714;37.436;2023-09-19T12:37:35;10.00;;;5.00;;
65162;SDS011;51751;55.714;37.436;2023-09-19T12:40:07;8.65;;;4.75;;
65162;SDS011;51751;55.714;37.436;2023-09-19T12:42:42;6.70;;;4.57;;
65162;SDS011;51751;55.714;37.436;2023-09-19T12:45:10;6.35;;;4.28;;
65162;SDS011;51751;55.714;37.436;2023-09-19T12:47:39;8.70;;;4.30;;
65162;SDS011;51751;55.714;37.436;2023-09-19T12:52:40;9.23;;;4.57;;
65162;SDS011;51751;55.714;37.436;2023-09-19T12:55:20;10.43;;;4.50;;
65162;SDS011;51751;55.714;37.436;2023-09-19T13:00:44;13.80;;;4.57;;
65162;SDS011;51751;55.714;37.436;2023-09-19T13:03:12;8.40;;;4.68;;
65162;SDS011;51751;55.714;37.436;2023-09-19T13:05:47;7.85;;;4.47;;
65162;SDS011;51751;55.714;37.436;2023-09-19T13:08:18;7.10;;;4.47;;
65162;SDS011;51751;55.714;37.436;2023-09-19T13:13:47;17.55;;;5.57;;
65162;SDS011;51751;55.714;37.436;2023-09-19T13:16:20;12.52;;;4.70;;
65162;SDS011;51751;55.714;37.436;2023-09-19T13:18:54;8.25;;;4.45;;
65162;SDS011;51751;55.714;37.436;2023-09-19T13:21:32;13.80;;;4.38;;
65162;SDS011;51751;55.714;37.436;2023-09-19T13:24:22;5.97;;;4.43;;
65162;SDS011;51751;55.714;37.436;2023-09-19T13:26:53;9.48;;;4.45;;
65162;SDS011;51751;55.714;37.436;2023-09-19T13:29:19;6.65;;;4.30;;
65162;SDS011;51751;55.714;37.436;2023-09-19T13:31:46;9.30;;;4.50;;
65162;SDS011;51751;55.714;37.436;2023-09-19T13:34:13;12.00;;;4.63;;
65162;SDS011;51751;55.714;37.436;2023-09-19T13:36:41;7.25;;;4.68;;
65162;SDS011;51751;55.714;37.436;2023-09-19T13:39:11;13.15;;;5.25;;
65162;SDS011;51751;55.714;37.436;2023-09-19T13:41:41;8.88;;;4.15;;
65162;SDS011;51751;55.714;37.436;2023-09-19T13:44:09;12.95;;;4.60;;
65162;SDS011;51751;55.714;37.436;2023-09-19T13:46:38;14.48;;;4.32;;
65162;SDS011;51751;55.714;37.436;2023-09-19T13:49:08;9.02;;;4.30;;
65162;SDS011;51751;55.714;37.436;2023-09-19T13:51:35;9.73;;;4.47;;
65162;SDS011;51751;55.714;37.436;2023-09-19T13:54:00;7.63;;;4.05;;
65162;SDS011;51751;55.714;37.436;2023-09-19T13:56:26;9.00;;;4.35;;
65162;SDS011;51751;55.714;37.436;2023-09-19T13:58:57;12.90;;;4.60;;
65162;SDS011;51751;55.714;37.436;2023-09-19T14:01:24;5.00;;;3.75;;
65162;SDS011;51751;55.714;37.436;2023-09-19T14:03:52;12.50;;;4.85;;
65162;SDS011;51751;55.714;37.436;2023-09-19T14:06:19;9.50;;;4.22;;
65162;SDS011;51751;55.714;37.436;2023-09-19T14:08:45;8.50;;;4.10;;
65162;SDS011;51751;55.714;37.436;2023-09-19T14:11:15;8.90;;;3.97;;
65162;SDS011;51751;55.714;37.436;2023-09-19T14:13:42;11.18;;;4.20;;
65162;SDS011;51751;55.714;37.436;2023-09-19T14:16:12;17.45;;;4.55;;
65162;SDS011;51751;55.714;37.436;2023-09-19T14:18:38;9.98;;;4.05;;
65162;SDS011;51751;55.714;37.436;2023-09-19T14:21:05;9.77;;;4.45;;
65162;SDS011;51751;55.714;37.436;2023-09-19T14:23:35;8.25;;;4.15;;
65162;SDS011;51751;55.714;37.436;2023-09-19T14:26:04;9.98;;;4.85;;
65162;SDS011;51751;55.714;37.436;2023-09-19T14:28:33;11.02;;;4.50;;
65162;SDS011;51751;55.714;37.436;2023-09-19T14:31:07;10.82;;;4.50;;
65162;SDS011;51751;55.714;37.436;2023-09-19T14:33:34;12.18;;;5.38;;
65162;SDS011;51751;55.714;37.436;2023-09-19T14:36:04;15.27;;;4.97;;
65162;SDS011;51751;55.714;37.436;2023-09-19T14:38:35;12.07;;;5.45;;
65162;SDS011;51751;55.714;37.436;2023-09-19T14:41:03;13.50;;;5.30;;
65162;SDS011;51751;55.714;37.436;2023-09-19T14:43:30;12.27;;;4.60;;
65162;SDS011;51751;55.714;37.436;2023-09-19T14:45:56;10.75;;;5.07;;
65162;SDS011;51751;55.714;37.436;2023-09-19T14:48:25;9.50;;;4.72;;
65162;SDS011;51751;55.714;37.436;2023-09-19T14:51:01;8.30;;;4.75;;
65162;SDS011;51751;55.714;37.436;2023-09-19T14:53:33;11.52;;;4.55;;
65162;SDS011;51751;55.714;37.436;2023-09-19T14:56:02;9.32;;;4.57;;
65162;SDS011;51751;55.714;37.436;2023-09-19T14:58:31;10.43;;;4.30;;
65162;SDS011;51751;55.714;37.436;2023-09-19T15:01:10;8.52;;;5.22;;
65162;SDS011;51751;55.714;37.436;2023-09-19T15:03:37;13.55;;;4.97;;
65162;SDS011;51751;55.714;37.436;2023-09-19T15:06:05;8.95;;;4.40;;
65162;SDS011;51751;55.714;37.436;2023-09-19T15:08:36;17.92;;;5.35;;
65162;SDS011;51751;55.714;37.436;2023-09-19T15:11:06;11.73;;;4.70;;
65162;SDS011;51751;55.714;37.436;2023-09-19T15:13:33;8.07;;;4.65;;
65162;SDS011;51751;55.714;37.436;2023-09-19T15:16:00;8.95;;;4.85;;
65162;SDS011;51751;55.714;37.436;2023-09-19T15:18:27;9.43;;;5.20;;
65162;SDS011;51751;55.714;37.436;2023-09-19T15:21:05;8.88;;;4.82;;
65162;SDS011;51751;55.714;37.436;2023-09-19T15:23:38;11.25;;;5.07;;
65162;SDS011;51751;55.714;37.436;2023-09-19T15:26:07;16.35;;;5.45;;
65162;SDS011;51751;55.714;37.436;2023-09-19T15:28:39;20.80;;;5.30;;
65162;SDS011;51751;55.714;37.436;2023-09-19T15:31:09;10.05;;;5.53;;